• Join FlightAware (Why Join?)
  • Login
  • US Flag 
09:14PM EDT


 

Airport Tracker/Info


-or-


 

Live Flight TrackerFlight Track Log ✈ N818GM ✈ 16-Jun-2013 ✈ KAPF - KTLH

Flight Track Log - Related Links

Times and Time Zones

All times are in EDT time to prevent confusion due to time zone crossing. See the N818GM flight status page for this flight to view local times or setup timezone preferences in your user account.

Time Position Orientation Groundspeed Altitude Reporting Facility
EDT Latitude Longitude Course Direction KTS MPH feet Rate Location/Type
07:20AM 26.4254 -81.8000 North  Level FlightAware Approximate
07:21AM 26.4729 -81.8047 355° North  Level FlightAware Approximate
07:22AM 26.5205 -81.8093 355° North  Level FlightAware Approximate
07:23AM 26.5681 -81.8140 355° North  Level FlightAware Approximate
07:24AM 26.6156 -81.8187 355° North  Level FlightAware Approximate
07:25AM 26.6632 -81.8234 355° North  Level FlightAware Approximate
07:26AM 26.7107 -81.8281 355° North  Level FlightAware Approximate
07:27AM 26.7583 -81.8328 355° North  Level FlightAware Approximate
07:28AM 26.8059 -81.8375 355° North  Level FlightAware Approximate
07:28AM 26.8325 -81.8450 355° North 175 201 6,000  Level Miami Center
07:29AM 26.8534 -81.8422 355° North  Level FlightAware Approximate
07:29AM 26.8781 -81.8539 350° North 175 201 6,000  Level Miami Center
07:30AM 26.9010 -81.8469 355° North  Level FlightAware Approximate
07:30AM 26.9258 -81.8631 350° North 180 207 6,000  Level Miami Center
07:31AM 26.9485 -81.8516 355° North  Level FlightAware Approximate
07:31AM 26.9758 -81.8697 353° North 180 207 6,000  Level Miami Center
07:32AM 26.9961 -81.8564 355° North  Level FlightAware Approximate
07:32AM 27.0236 -81.8764 353° North 180 207 6,000  Level Miami Center
07:33AM 27.0437 -81.8611 355° North  Level FlightAware Approximate
07:33AM 27.0733 -81.8833 353° North 180 207 6,000  Level Miami Center
07:34AM 27.0912 -81.8658 355° North  Level FlightAware Approximate
07:34AM 27.1233 -81.8900 353° North 180 207 6,000  Level Miami Center
07:35AM 27.1711 -81.8969 353° North 180 207 6,000  Level Miami Center
07:36AM 27.2189 -81.9036 353° North 180 207 6,000  Level Miami Center
07:37AM 27.2664 -81.9103 353° North 180 207 6,000  Level Miami Center
07:38AM 27.3142 -81.9172 353° North 180 207 6,000  Level Miami Center
07:39AM 27.3619 -81.9239 353° North 180 207 6,000  Level Miami Center
07:40AM 27.4097 -81.9306 353° North 180 207 6,000  Level Miami Center
07:41AM 27.4575 -81.9375 353° North 180 207 6,000  Level Miami Center
07:42AM 27.5033 -81.9442 353° North 175 201 6,000  Level Miami Center
07:43AM 27.5489 -81.9486 355° North 170 196 6,000  Level Miami Center
07:44AM 27.5967 -81.9553 353° North 170 196 6,000  Level Miami Center
07:45AM 27.6422 -81.9644 350° North 170 196 6,000  Level Miami Center
07:46AM 27.6881 -81.9711 353° North 170 196 6,000  Level Miami Center
07:47AM 27.7358 -81.9778 353° North 170 196 6,000  Level Miami Center
07:48AM 27.7878 -81.9850 353° North 170 196 6,000  Level Miami Center
07:49AM 27.8311 -81.9939 350° North 175 201 6,100  Climbing Miami Center
07:50AM 27.8833 -82.0000 354° North 174 200 6,000 -60 Descending Tampa TRACON
07:51AM 27.9167 -82.0000 360° North 173 199 6,000  Level Tampa TRACON
07:52AM 27.9667 -82.0167 344° North 174 200 6,000  Level Tampa TRACON
07:53AM 28.0167 -82.0333 344° North 177 204 6,000  Level Tampa TRACON
07:54AM 28.0500 -82.0500 336° Northwest 173 199 6,100  Climbing Tampa TRACON
07:55AM 28.1000 -82.0833 330° Northwest 172 198 6,100  Level Tampa TRACON
07:56AM 28.1333 -82.1167 319° Northwest 171 197 6,100  Level Tampa TRACON
07:57AM 28.1833 -82.1333 344° North 170 196 6,100  Level Tampa TRACON
07:58AM 28.2167 -82.1667 319° Northwest 174 200 6,100  Level Tampa TRACON
07:59AM 28.2667 -82.1833 344° North 175 201 6,100  Level Tampa TRACON
08:00AM 28.3000 -82.2167 319° Northwest 175 201 6,100  Level Tampa TRACON
08:01AM 28.3500 -82.2500 330° Northwest 176 203 6,100  Level Tampa TRACON
08:02AM 28.3833 -82.2667 336° Northwest 176 203 6,100  Level Tampa TRACON
08:04AM 28.4783 -82.3281 330° Northwest 176 203 6,100  Level Jacksonville Center
08:05AM 28.5203 -82.3561 330° Northwest 174 200 6,100  Level Jacksonville Center
08:06AM 28.5558 -82.3797 330° Northwest 174 200 6,100  Level Jacksonville Center
08:07AM 28.6019 -82.4103 330° Northwest 172 198 6,100  Level Jacksonville Center
08:08AM 28.6436 -82.4361 331° Northwest 173 199 6,100  Level Jacksonville Center
08:09AM 28.6897 -82.4642 332° Northwest 175 201 6,100  Level Jacksonville Center
08:10AM 28.7317 -82.4925 329° Northwest 175 201 6,100  Level Jacksonville Center
08:11AM 28.7650 -82.5256 319° Northwest 169 194 6,100  Level Jacksonville Center
08:12AM 28.7964 -82.5561 320° Northwest 173 199 6,100  Level Jacksonville Center
08:13AM 28.8383 -82.6033 315° West 171 197 6,100  Level Jacksonville Center
08:14AM 28.8675 -82.6342 317° Northwest 168 193 6,100  Level Jacksonville Center
08:15AM 28.8947 -82.6650 315° West 168 193 6,100  Level Jacksonville Center
08:16AM 28.9303 -82.7028 317° Northwest 168 193 6,100  Level Jacksonville Center
08:17AM 28.9639 -82.7408 315° West 168 193 6,100  Level Jacksonville Center
08:18AM 28.9972 -82.7786 315° West 168 193 6,100  Level Jacksonville Center
08:19AM 29.0328 -82.8167 317° Northwest 168 193 6,100  Level Jacksonville Center
08:20AM 29.0661 -82.8522 317° Northwest 168 193 6,100  Level Jacksonville Center
08:21AM 29.0994 -82.8925 313° West 168 193 6,100  Level Jacksonville Center
08:22AM 29.1328 -82.9306 315° West 168 193 6,100  Level Jacksonville Center
08:23AM 29.1664 -82.9664 317° Northwest 168 193 6,100  Level Jacksonville Center
08:24AM 29.2017 -83.0044 317° Northwest 168 193 6,100  Level Jacksonville Center
08:25AM 29.2350 -83.0425 315° West 168 193 6,100  Level Jacksonville Center
08:26AM 29.2706 -83.0806 317° Northwest 168 193 6,100  Level Jacksonville Center
08:27AM 29.3039 -83.1164 317° Northwest 168 193 6,100  Level Jacksonville Center
08:28AM 29.3372 -83.1547 315° West 168 193 6,100  Level Jacksonville Center
08:29AM 29.3725 -83.1953 315° West 168 193 6,100  Level Jacksonville Center
08:30AM 29.4081 -83.2333 317° Northwest 173 199 6,100  Level Jacksonville Center
08:31AM 29.4414 -83.2742 313° West 173 199 6,100  Level Jacksonville Center
08:32AM 29.4767 -83.3100 319° Northwest 173 199 6,100  Level Jacksonville Center
08:33AM 29.5119 -83.3483 317° Northwest 173 199 6,100  Level Jacksonville Center
08:34AM 29.5453 -83.3892 313° West 173 199 6,100  Level Jacksonville Center
08:35AM 29.5806 -83.4300 315° West 173 199 6,100  Level Jacksonville Center
08:36AM 29.6139 -83.4658 317° Northwest 173 199 6,100  Level Jacksonville Center
08:37AM 29.6492 -83.5044 316° Northwest 173 199 6,100  Level Jacksonville Center
08:38AM 29.6825 -83.5428 315° West 173 199 6,100  Level Jacksonville Center
08:39AM 29.7178 -83.5814 316° Northwest 173 199 6,100  Level Jacksonville Center
08:40AM 29.7508 -83.6197 315° West 173 199 6,100  Level Jacksonville Center
08:41AM 29.7861 -83.6583 316° Northwest 173 199 6,100  Level Jacksonville Center
08:42AM 29.8192 -83.6944 317° Northwest 173 199 6,100  Level Jacksonville Center
08:43AM 29.8525 -83.7331 315° West 173 199 6,100  Level Jacksonville Center
08:44AM 29.8878 -83.7717 317° Northwest 173 199 6,100  Level Jacksonville Center
08:45AM 29.9208 -83.8103 315° West 173 199 6,100  Level Jacksonville Center
08:46AM 29.9519 -83.8467 315° West 173 199 6,100 -300 Level Jacksonville Center
08:47AM 29.9869 -83.8878 315° West 173 199 5,500 -600 Descending Jacksonville Center
08:48AM 30.0244 -83.9264 318° Northwest 173 199 5,000 -540 Descending Jacksonville Center
08:49AM 30.0594 -83.9678 314° West 173 199 4,500 -540 Descending Jacksonville Center
08:50AM 30.0967 -84.0114 315° West 173 199 4,000 -540 Descending Jacksonville Center
08:52AM 30.1474 -84.0660 315° West  Level FlightAware Approximate
08:59AM 30.3766 -84.3416 313° West  Level FlightAware Approximate
09:00AM 30.3833 -84.3500 313° West  Level FlightAware Approximate
09:01AM 30.3967 -84.3509 313° West  Level Estimated
09:02AM 30.3967 -84.3509 313° West  Level Estimated
09:03AM 30.3967 -84.3509 313° West  Level Estimated
09:04AM 30.3967 -84.3509 313° West  Level Estimated
09:05AM 30.3967 -84.3509 313° West  Level Estimated
09:06AM 30.3967 -84.3509 313° West  Level Estimated
09:07AM 30.3967 -84.3509 313° West  Level Estimated
09:08AM 30.3967 -84.3509 313° West  Level Estimated
09:09AM 30.3967 -84.3509 313° West  Level Estimated